createdAt,value
2024-01-31T00:02:10.174Z,13.35
2024-01-31T00:04:39.012Z,15.30
2024-01-31T00:07:06.719Z,9.90
2024-01-31T00:09:34.645Z,8.68
2024-01-31T00:12:03.993Z,11.35
2024-01-31T00:14:31.553Z,10.77
2024-01-31T00:16:59.874Z,16.63
2024-01-31T00:19:27.672Z,8.98
2024-01-31T00:21:55.508Z,13.70
2024-01-31T00:24:23.135Z,15.02
2024-01-31T00:26:50.753Z,7.88
2024-01-31T00:29:19.882Z,8.50
2024-01-31T00:31:47.783Z,12.43
2024-01-31T00:34:15.547Z,13.18
2024-01-31T00:36:43.257Z,9.57
2024-01-31T00:39:11.481Z,15.40
2024-01-31T00:41:39.884Z,16.50
2024-01-31T00:44:07.493Z,15.63
2024-01-31T00:46:42.410Z,12.77
2024-01-31T00:49:10.393Z,11.20
2024-01-31T00:51:38.025Z,10.30
2024-01-31T00:54:06.075Z,8.50
2024-01-31T00:56:33.652Z,12.57
2024-01-31T00:59:01.899Z,9.85
2024-01-31T01:01:29.690Z,9.85
2024-01-31T01:03:58.710Z,12.52
2024-01-31T01:06:26.345Z,7.57
2024-01-31T01:08:53.928Z,10.48
2024-01-31T01:11:21.579Z,14.25
2024-01-31T01:13:50.254Z,11.63
2024-01-31T01:16:17.921Z,10.32
2024-01-31T01:18:45.541Z,11.88
2024-01-31T01:21:14.501Z,13.23
2024-01-31T01:23:42.321Z,10.18
2024-01-31T01:26:10.045Z,12.45
2024-01-31T01:28:39.756Z,10.80
2024-01-31T01:31:07.654Z,13.98
2024-01-31T01:33:35.442Z,11.80
2024-01-31T01:36:05.245Z,14.82
2024-01-31T01:38:34.474Z,10.50
2024-01-31T01:41:02.343Z,17.35
2024-01-31T01:43:30.321Z,11.52
2024-01-31T01:46:01.917Z,13.13
2024-01-31T01:48:29.688Z,18.48
2024-01-31T01:50:57.402Z,12.65
2024-01-31T01:53:25.106Z,20.23
2024-01-31T01:55:54.400Z,23.00
2024-01-31T01:58:22.136Z,15.70
2024-01-31T02:00:50.251Z,14.98
2024-01-31T02:03:19.306Z,14.13
2024-01-31T02:05:47.858Z,10.82
2024-01-31T02:08:15.762Z,14.07
2024-01-31T02:10:43.569Z,14.82
2024-01-31T02:13:12.790Z,16.13
2024-01-31T02:15:40.649Z,10.68
2024-01-31T02:18:08.823Z,10.77
2024-01-31T02:20:37.162Z,10.00
2024-01-31T02:23:06.417Z,14.02
2024-01-31T02:25:34.046Z,11.60
2024-01-31T02:28:01.723Z,13.65
2024-01-31T02:30:29.483Z,23.23
2024-01-31T02:32:58.583Z,11.38
2024-01-31T02:35:26.281Z,17.38
2024-01-31T02:37:53.878Z,14.10
2024-01-31T02:40:23.433Z,11.02
2024-01-31T02:42:51.231Z,11.52
2024-01-31T02:45:19.110Z,12.02
2024-01-31T02:47:46.887Z,10.05
2024-01-31T02:50:14.825Z,11.30
2024-01-31T02:52:42.592Z,12.02
2024-01-31T02:55:10.993Z,10.85
2024-01-31T02:57:41.541Z,12.57
2024-01-31T03:00:13.518Z,15.80
2024-01-31T03:02:45.338Z,13.73
2024-01-31T03:05:12.775Z,14.20
2024-01-31T03:07:41.312Z,15.80
2024-01-31T03:10:11.195Z,12.90
2024-01-31T03:12:40.673Z,14.73
2024-01-31T03:15:08.487Z,17.05
2024-01-31T03:17:38.079Z,10.82
2024-01-31T03:20:07.404Z,13.30
2024-01-31T03:22:36.657Z,14.50
2024-01-31T03:25:05.094Z,11.70
2024-01-31T03:27:32.801Z,11.75
2024-01-31T03:30:08.628Z,11.93
2024-01-31T03:32:38.261Z,10.77
2024-01-31T03:35:06.481Z,11.07
2024-01-31T03:37:34.383Z,9.10
2024-01-31T03:40:02.302Z,11.98
2024-01-31T03:42:30.090Z,11.05
2024-01-31T03:44:59.310Z,12.20
2024-01-31T03:47:28.371Z,10.13
2024-01-31T03:49:56.262Z,8.93
2024-01-31T03:52:26.525Z,17.25
2024-01-31T03:54:54.292Z,10.15
2024-01-31T03:57:21.955Z,10.98
2024-01-31T03:59:50.392Z,12.38
2024-01-31T04:02:18.230Z,10.05
2024-01-31T04:04:47.405Z,15.70
2024-01-31T04:07:15.319Z,16.40
2024-01-31T04:09:43.108Z,12.30
2024-01-31T04:12:10.866Z,14.35
2024-01-31T04:14:38.435Z,9.50
2024-01-31T04:17:06.276Z,12.15
2024-01-31T04:19:34.196Z,13.00
2024-01-31T04:22:03.436Z,14.52
2024-01-31T04:24:31.192Z,21.17
2024-01-31T04:26:58.792Z,15.80
2024-01-31T04:29:26.530Z,13.00
2024-01-31T04:31:54.373Z,16.20
2024-01-31T04:34:23.150Z,15.00
2024-01-31T04:36:50.857Z,11.40
2024-01-31T04:39:20.137Z,13.02
2024-01-31T04:41:48.399Z,11.38
2024-01-31T04:44:16.184Z,13.43
2024-01-31T04:46:43.982Z,10.02
2024-01-31T04:49:11.966Z,10.13
2024-01-31T04:51:41.911Z,15.05
2024-01-31T04:54:09.867Z,13.50
2024-01-31T04:56:38.975Z,13.45
2024-01-31T04:59:07.538Z,12.05
2024-01-31T05:01:35.815Z,12.40
2024-01-31T05:04:04.524Z,16.73
2024-01-31T05:06:32.455Z,13.30
2024-01-31T05:09:00.287Z,11.82
2024-01-31T05:11:28.032Z,10.10
2024-01-31T05:13:57.174Z,11.88
2024-01-31T05:16:25.064Z,13.00
2024-01-31T05:18:52.830Z,11.65
2024-01-31T05:21:20.624Z,16.35
2024-01-31T05:23:48.335Z,17.30
2024-01-31T05:26:16.104Z,14.88
2024-01-31T05:28:44.736Z,15.60
2024-01-31T05:31:13.979Z,14.25
2024-01-31T05:33:41.795Z,15.90
2024-01-31T05:36:09.624Z,15.25
2024-01-31T05:38:37.374Z,16.30
2024-01-31T05:41:05.181Z,15.35
2024-01-31T05:43:32.997Z,17.42
2024-01-31T05:46:00.800Z,13.27
2024-01-31T05:48:29.987Z,13.77
2024-01-31T05:50:57.722Z,13.02
2024-01-31T05:53:25.545Z,16.58
2024-01-31T05:55:53.428Z,13.50
2024-01-31T05:58:24.825Z,17.33
2024-01-31T06:00:53.406Z,11.52
2024-01-31T06:03:22.157Z,15.30
2024-01-31T06:05:51.316Z,12.30
2024-01-31T06:08:19.704Z,13.10
2024-01-31T06:10:51.165Z,14.85
2024-01-31T06:13:19.003Z,19.55
2024-01-31T06:15:46.821Z,16.58
2024-01-31T06:18:15.363Z,16.95
2024-01-31T06:20:44.436Z,10.65
2024-01-31T06:23:13.861Z,12.45
2024-01-31T06:25:41.593Z,15.70
2024-01-31T06:28:09.492Z,12.93
2024-01-31T06:30:44.721Z,17.35
2024-01-31T06:33:12.661Z,17.25
2024-01-31T06:35:43.082Z,15.32
2024-01-31T06:38:10.859Z,16.48
2024-01-31T06:40:40.006Z,16.48
2024-01-31T06:43:07.867Z,18.15
2024-01-31T06:45:36.177Z,17.08
2024-01-31T06:48:05.343Z,18.23
2024-01-31T06:50:33.321Z,14.50
2024-01-31T06:53:00.944Z,16.73
2024-01-31T06:55:28.737Z,18.67
2024-01-31T06:57:57.742Z,14.85
2024-01-31T07:00:25.359Z,20.08
2024-01-31T07:02:54.333Z,18.40
2024-01-31T07:05:22.479Z,14.13
2024-01-31T07:07:51.593Z,17.13
2024-01-31T07:10:19.256Z,14.48
2024-01-31T07:12:46.973Z,17.55
2024-01-31T07:15:19.404Z,18.73
2024-01-31T07:17:47.227Z,19.05
2024-01-31T07:20:15.197Z,18.90
2024-01-31T07:22:43.050Z,16.20
2024-01-31T07:25:12.564Z,20.50
2024-01-31T07:27:42.058Z,19.65
2024-01-31T07:30:11.985Z,22.17
2024-01-31T07:32:41.287Z,18.83
2024-01-31T07:35:09.715Z,23.83
2024-01-31T07:37:38.247Z,19.20
2024-01-31T07:40:06.923Z,19.10
2024-01-31T07:42:37.074Z,22.33
2024-01-31T07:45:05.944Z,14.98
2024-01-31T07:47:33.820Z,19.95
2024-01-31T07:50:05.453Z,15.73
2024-01-31T07:52:33.444Z,22.30
2024-01-31T07:55:01.461Z,13.95
2024-01-31T07:57:29.285Z,16.33
2024-01-31T07:59:57.029Z,22.67
2024-01-31T08:02:24.845Z,21.80
2024-01-31T08:04:56.092Z,22.20
2024-01-31T08:07:26.361Z,22.33
2024-01-31T08:09:54.160Z,16.50
2024-01-31T08:12:21.941Z,26.48
2024-01-31T08:14:50.163Z,19.52
2024-01-31T08:17:20.115Z,17.17
2024-01-31T08:19:47.957Z,22.00
2024-01-31T08:22:16.012Z,16.42
2024-01-31T08:24:45.088Z,16.23
2024-01-31T08:27:12.757Z,17.13
2024-01-31T08:29:40.781Z,18.02
2024-01-31T08:32:08.543Z,21.73
2024-01-31T08:34:36.342Z,15.63
2024-01-31T08:37:04.321Z,16.50
2024-01-31T08:39:32.042Z,15.05
2024-01-31T08:42:01.380Z,12.10
2024-01-31T08:44:29.290Z,14.80
2024-01-31T08:47:10.154Z,19.13
2024-01-31T08:49:45.034Z,14.45
2024-01-31T08:52:13.227Z,13.32
2024-01-31T08:54:41.137Z,13.20
2024-01-31T08:57:10.150Z,14.60
2024-01-31T08:59:37.893Z,13.10
2024-01-31T09:02:05.862Z,14.30
2024-01-31T09:04:34.182Z,14.30
2024-01-31T09:07:02.096Z,15.35
2024-01-31T09:09:31.420Z,20.63
2024-01-31T09:11:59.089Z,18.25
2024-01-31T09:14:28.097Z,12.07
2024-01-31T09:16:55.848Z,12.40
2024-01-31T09:19:23.685Z,15.73
2024-01-31T09:21:51.327Z,16.90
2024-01-31T09:24:18.938Z,16.25
2024-01-31T09:26:46.699Z,16.63
2024-01-31T09:29:14.425Z,19.27
2024-01-31T09:31:43.446Z,16.98
2024-01-31T09:34:11.189Z,17.42
2024-01-31T09:36:38.809Z,16.15
2024-01-31T09:39:07.079Z,18.25
2024-01-31T09:41:34.788Z,15.52
2024-01-31T09:44:02.443Z,21.80
2024-01-31T09:46:31.652Z,12.98
2024-01-31T09:49:00.858Z,18.33
2024-01-31T09:51:28.505Z,16.10
2024-01-31T09:54:00.578Z,14.57
2024-01-31T09:58:56.637Z,19.98
2024-01-31T10:01:31.758Z,14.73
2024-01-31T10:04:02.414Z,14.10
2024-01-31T10:06:30.176Z,13.38
2024-01-31T10:08:58.240Z,13.20
2024-01-31T10:11:27.057Z,11.82
2024-01-31T10:13:55.213Z,11.05
2024-01-31T10:16:23.032Z,17.23
2024-01-31T10:18:50.710Z,11.20
2024-01-31T10:21:21.100Z,19.42
2024-01-31T10:23:56.987Z,19.25
2024-01-31T10:26:25.084Z,14.23
2024-01-31T10:28:57.782Z,12.98
2024-01-31T10:31:32.130Z,18.00
2024-01-31T10:34:00.307Z,19.35
2024-01-31T10:37:17.775Z,12.02
2024-01-31T10:39:19.238Z,18.88
2024-01-31T10:41:48.427Z,15.80
2024-01-31T10:44:17.012Z,17.83
2024-01-31T10:46:47.409Z,18.08
2024-01-31T10:49:18.539Z,15.13
2024-01-31T10:51:50.182Z,13.13
2024-01-31T10:54:18.913Z,12.93
2024-01-31T10:56:46.416Z,17.50
2024-01-31T10:59:14.476Z,14.68
2024-01-31T11:01:51.656Z,15.82
2024-01-31T11:04:19.595Z,15.65
2024-01-31T11:06:50.347Z,14.23
2024-01-31T11:09:22.942Z,11.07
2024-01-31T11:11:50.815Z,22.67
2024-01-31T11:14:18.498Z,14.43
2024-01-31T11:16:46.177Z,29.23
2024-01-31T11:19:19.290Z,19.10
2024-01-31T11:21:48.336Z,14.73
2024-01-31T11:24:16.651Z,16.50
2024-01-31T11:26:44.720Z,24.45
2024-01-31T11:29:13.474Z,19.75
2024-01-31T11:31:41.419Z,17.50
2024-01-31T11:34:12.681Z,20.27
2024-01-31T11:36:40.876Z,17.33
2024-01-31T11:39:10.245Z,19.20
2024-01-31T11:41:38.330Z,23.35
2024-01-31T11:44:06.552Z,21.73
2024-01-31T11:46:34.222Z,16.23
2024-01-31T11:49:02.155Z,17.50
2024-01-31T11:51:30.816Z,18.83
2024-01-31T11:53:59.366Z,14.00
2024-01-31T11:56:28.480Z,18.02
2024-01-31T11:58:57.142Z,13.63
2024-01-31T12:01:25.448Z,17.00
2024-01-31T12:03:53.237Z,12.07
2024-01-31T12:06:21.078Z,15.07
2024-01-31T12:08:49.092Z,18.40
2024-01-31T12:11:16.911Z,16.27
2024-01-31T12:13:47.543Z,16.15
2024-01-31T12:16:15.402Z,17.77
2024-01-31T12:18:43.148Z,16.13
2024-01-31T12:21:12.983Z,23.55
2024-01-31T12:23:40.696Z,16.27
2024-01-31T12:26:08.345Z,16.73
2024-01-31T12:28:36.037Z,18.35
2024-01-31T12:31:05.345Z,20.50
2024-01-31T12:33:33.196Z,22.02
2024-01-31T12:36:01.008Z,19.48
2024-01-31T12:38:28.731Z,21.15
2024-01-31T12:40:56.388Z,26.17
2024-01-31T12:43:25.341Z,22.42
2024-01-31T12:45:53.569Z,16.15
2024-01-31T12:48:22.659Z,13.50
2024-01-31T12:50:51.035Z,15.23
2024-01-31T12:53:18.782Z,19.10
2024-01-31T12:55:46.465Z,14.93
2024-01-31T12:58:14.205Z,21.30
2024-01-31T13:00:41.921Z,18.17
2024-01-31T13:03:09.868Z,18.33
2024-01-31T13:05:39.521Z,18.23
2024-01-31T13:08:07.814Z,15.40
2024-01-31T13:10:36.431Z,19.77
2024-01-31T13:13:04.359Z,22.27
2024-01-31T13:17:59.739Z,19.77
2024-01-31T13:20:27.434Z,16.65
2024-01-31T13:22:56.522Z,19.58
2024-01-31T13:25:24.255Z,17.05
2024-01-31T13:27:53.834Z,25.08
2024-01-31T13:30:21.966Z,18.17
2024-01-31T13:32:49.827Z,24.05
2024-01-31T13:35:17.679Z,17.08
2024-01-31T13:37:45.716Z,18.25
2024-01-31T13:40:14.811Z,18.48
2024-01-31T13:42:42.534Z,21.63
2024-01-31T13:45:10.985Z,17.98
2024-01-31T13:47:38.845Z,18.58
2024-01-31T13:50:07.069Z,17.33
2024-01-31T13:52:34.781Z,17.30
2024-01-31T13:55:02.418Z,22.58
2024-01-31T13:57:31.878Z,20.73
2024-01-31T13:59:59.897Z,20.42
2024-01-31T14:02:27.944Z,14.85
2024-01-31T14:04:56.226Z,24.85
2024-01-31T14:07:23.959Z,16.15
2024-01-31T14:09:51.577Z,17.60
2024-01-31T14:12:19.231Z,19.38
2024-01-31T14:14:48.730Z,16.13
2024-01-31T14:17:16.561Z,14.68
2024-01-31T14:19:44.311Z,18.30
2024-01-31T14:22:17.613Z,16.95
2024-01-31T14:24:50.541Z,21.70
2024-01-31T14:27:18.556Z,20.85
2024-01-31T14:29:46.374Z,17.85
2024-01-31T14:32:15.818Z,20.63
2024-01-31T14:34:43.742Z,18.63
2024-01-31T14:37:11.640Z,15.65
2024-01-31T14:39:39.457Z,16.05
2024-01-31T14:42:10.367Z,20.65
2024-01-31T14:44:39.748Z,17.20
2024-01-31T14:47:07.478Z,13.73
2024-01-31T14:49:36.746Z,15.05
2024-01-31T14:52:04.570Z,14.70
2024-01-31T14:54:32.407Z,15.90
2024-01-31T14:57:00.289Z,13.05
2024-01-31T14:59:28.295Z,13.93
2024-01-31T15:02:00.308Z,12.18
2024-01-31T15:06:57.228Z,12.05
2024-01-31T15:09:25.005Z,14.93
2024-01-31T15:11:52.781Z,11.57
2024-01-31T15:14:20.544Z,16.38
2024-01-31T15:16:50.389Z,10.82
2024-01-31T15:19:18.517Z,12.55
2024-01-31T15:21:47.358Z,12.05
2024-01-31T15:24:16.905Z,10.32
2024-01-31T15:26:44.780Z,12.90
2024-01-31T15:29:12.522Z,7.95
2024-01-31T15:31:40.187Z,15.98
2024-01-31T15:34:09.127Z,9.30
2024-01-31T15:36:37.024Z,11.75
2024-01-31T15:39:05.203Z,10.73
2024-01-31T15:41:39.062Z,15.30
2024-01-31T15:44:06.831Z,9.75
2024-01-31T15:46:38.203Z,8.82
2024-01-31T15:49:05.986Z,15.65
2024-01-31T15:51:38.383Z,11.60
2024-01-31T15:54:06.105Z,12.90
2024-01-31T15:56:35.266Z,12.52
2024-01-31T15:59:02.884Z,15.30
2024-01-31T16:01:32.551Z,13.23
2024-01-31T16:04:00.628Z,15.60
2024-01-31T16:06:28.595Z,11.85
2024-01-31T16:08:59.269Z,18.08
2024-01-31T16:11:28.629Z,14.38
2024-01-31T16:13:57.782Z,14.35
2024-01-31T16:16:25.555Z,10.40
2024-01-31T16:18:53.308Z,16.27
2024-01-31T16:21:21.157Z,13.38
2024-01-31T16:23:50.363Z,15.80
2024-01-31T16:26:18.101Z,11.85
2024-01-31T16:28:45.789Z,12.82
2024-01-31T16:31:15.894Z,15.00
2024-01-31T16:33:46.893Z,19.85
2024-01-31T16:36:19.290Z,16.67
2024-01-31T16:41:18.267Z,10.23
2024-01-31T16:43:45.942Z,11.35
2024-01-31T16:46:14.920Z,17.50
2024-01-31T16:48:43.785Z,13.05
2024-01-31T16:51:12.331Z,10.60
2024-01-31T16:53:40.015Z,14.27
2024-01-31T16:56:07.853Z,14.98
2024-01-31T16:58:35.530Z,11.80
2024-01-31T17:01:04.621Z,12.75
2024-01-31T17:03:37.214Z,14.20
2024-01-31T17:06:05.642Z,15.55
2024-01-31T17:08:33.856Z,11.50
2024-01-31T17:11:02.525Z,14.82
2024-01-31T17:13:30.224Z,13.68
2024-01-31T17:15:57.870Z,12.23
2024-01-31T17:18:25.705Z,12.32
2024-01-31T17:20:54.803Z,12.93
2024-01-31T17:23:24.242Z,15.43
2024-01-31T17:25:51.995Z,14.57
2024-01-31T17:28:19.760Z,15.27
2024-01-31T17:30:47.487Z,11.68
2024-01-31T17:33:15.391Z,11.23
2024-01-31T17:35:43.249Z,11.95
2024-01-31T17:38:13.072Z,9.65
2024-01-31T17:40:41.733Z,11.75
2024-01-31T17:43:09.362Z,10.90
2024-01-31T17:45:36.976Z,10.90
2024-01-31T17:48:05.083Z,15.75
2024-01-31T17:50:34.255Z,12.00
2024-01-31T17:53:01.908Z,11.93
2024-01-31T17:55:31.017Z,10.93
2024-01-31T17:57:58.636Z,10.25
2024-01-31T18:00:26.377Z,11.65
2024-01-31T18:02:55.198Z,11.65
2024-01-31T18:05:22.970Z,19.85
2024-01-31T18:07:50.619Z,11.60
2024-01-31T18:10:18.373Z,15.40
2024-01-31T18:12:47.467Z,8.40
2024-01-31T18:15:19.631Z,10.52
2024-01-31T18:17:48.507Z,15.30
2024-01-31T18:20:17.227Z,12.63
2024-01-31T18:22:45.391Z,17.00
2024-01-31T18:25:13.262Z,14.20
2024-01-31T18:27:42.335Z,13.70
2024-01-31T18:30:11.964Z,11.65
2024-01-31T18:32:39.788Z,10.95
2024-01-31T18:35:07.976Z,16.30
2024-01-31T18:37:35.724Z,11.98
2024-01-31T18:40:03.383Z,14.57
2024-01-31T18:42:31.577Z,12.93
2024-01-31T18:44:59.325Z,19.05
2024-01-31T18:47:28.729Z,22.15
2024-01-31T18:49:56.565Z,14.65
2024-01-31T18:52:24.235Z,17.02
2024-01-31T18:54:51.879Z,14.35
2024-01-31T18:57:19.571Z,17.35
2024-01-31T18:59:47.325Z,12.20
2024-01-31T19:02:17.207Z,11.57
2024-01-31T19:04:53.540Z,10.85
2024-01-31T19:07:27.777Z,14.10
2024-01-31T19:09:55.469Z,9.95
2024-01-31T19:12:23.505Z,14.15
2024-01-31T19:14:51.921Z,17.48
2024-01-31T19:17:26.119Z,12.43
2024-01-31T19:19:58.066Z,13.18
2024-01-31T19:22:26.670Z,11.75
2024-01-31T19:24:56.527Z,16.80
2024-01-31T19:27:24.301Z,13.15
2024-01-31T19:29:53.345Z,10.88
2024-01-31T19:32:21.132Z,13.43
2024-01-31T19:34:49.269Z,14.80
2024-01-31T19:37:18.663Z,18.60
2024-01-31T19:39:46.308Z,19.75
2024-01-31T19:42:14.694Z,11.23
2024-01-31T19:44:42.617Z,13.23
2024-01-31T19:47:10.251Z,17.65
2024-01-31T19:49:38.049Z,11.25
2024-01-31T19:52:06.207Z,18.77
2024-01-31T19:54:35.293Z,20.25
2024-01-31T19:57:03.127Z,13.57
2024-01-31T19:59:33.237Z,14.60
2024-01-31T20:02:05.338Z,13.50
2024-01-31T20:04:33.051Z,12.05
2024-01-31T20:07:01.010Z,10.43
2024-01-31T20:09:28.815Z,12.50
2024-01-31T20:11:58.814Z,12.60
2024-01-31T20:14:26.694Z,14.82
2024-01-31T20:16:56.928Z,13.68
2024-01-31T20:19:24.819Z,20.55
2024-01-31T20:21:52.543Z,19.33
2024-01-31T20:24:20.307Z,13.50
2024-01-31T20:26:48.293Z,13.88
2024-01-31T20:29:17.793Z,16.70
2024-01-31T20:31:45.860Z,14.48
2024-01-31T20:34:13.764Z,14.25
2024-01-31T20:36:44.422Z,21.50
2024-01-31T20:39:12.198Z,18.02
2024-01-31T20:41:43.301Z,24.08
2024-01-31T20:44:11.063Z,18.43
2024-01-31T20:46:40.260Z,18.27
2024-01-31T20:49:08.213Z,19.33
2024-01-31T20:51:40.824Z,17.92
2024-01-31T20:54:08.619Z,28.63
2024-01-31T20:56:36.495Z,17.08
2024-01-31T20:59:04.187Z,16.80
2024-01-31T21:01:31.875Z,18.20
2024-01-31T21:04:01.116Z,20.52
2024-01-31T21:06:29.413Z,20.17
2024-01-31T21:08:57.206Z,21.60
2024-01-31T21:11:25.071Z,21.55
2024-01-31T21:13:54.005Z,26.80
2024-01-31T21:16:21.664Z,18.17
2024-01-31T21:18:49.564Z,25.40
2024-01-31T21:21:23.341Z,26.42
2024-01-31T21:23:51.297Z,21.92
2024-01-31T21:26:19.153Z,20.30
2024-01-31T21:28:47.445Z,26.10
2024-01-31T21:31:15.150Z,20.55
2024-01-31T21:33:47.504Z,19.52
2024-01-31T21:36:15.752Z,22.50
2024-01-31T21:38:46.409Z,23.80
2024-01-31T21:41:14.328Z,24.33
2024-01-31T21:43:42.252Z,21.08
2024-01-31T21:46:10.331Z,23.33
2024-01-31T21:48:39.531Z,25.05
2024-01-31T21:51:10.060Z,34.60
2024-01-31T21:53:38.179Z,30.65
2024-01-31T21:56:08.172Z,48.88
2024-01-31T21:58:35.765Z,28.58
2024-01-31T22:01:03.622Z,30.05
2024-01-31T22:03:45.898Z,24.55
2024-01-31T22:06:19.690Z,31.83
2024-01-31T22:08:47.679Z,34.72
2024-01-31T22:11:16.974Z,28.30
2024-01-31T22:13:44.921Z,29.63
2024-01-31T22:16:12.788Z,27.23
2024-01-31T22:18:40.571Z,30.20
2024-01-31T22:21:08.505Z,28.75
2024-01-31T22:23:36.606Z,25.83
2024-01-31T22:26:04.304Z,28.95
2024-01-31T22:28:33.479Z,26.42
2024-01-31T22:31:01.321Z,24.38
2024-01-31T22:33:29.099Z,33.10
2024-01-31T22:35:56.849Z,24.20
2024-01-31T22:38:24.605Z,27.30
2024-01-31T22:40:54.084Z,27.90
2024-01-31T22:43:21.784Z,29.08
2024-01-31T22:45:50.900Z,28.70
2024-01-31T22:48:18.715Z,29.23
2024-01-31T22:50:46.451Z,26.17
2024-01-31T22:53:14.186Z,31.17
2024-01-31T22:55:41.899Z,28.92
2024-01-31T22:58:09.509Z,33.63
2024-01-31T23:00:37.179Z,28.08
2024-01-31T23:03:06.691Z,27.38
2024-01-31T23:05:34.497Z,28.25
2024-01-31T23:08:02.442Z,32.45
2024-01-31T23:10:30.297Z,32.47
2024-01-31T23:12:59.055Z,34.63
2024-01-31T23:15:26.985Z,24.95
2024-01-31T23:17:56.062Z,29.35
2024-01-31T23:20:25.178Z,24.05
2024-01-31T23:22:52.823Z,25.17
2024-01-31T23:25:20.396Z,27.10
2024-01-31T23:27:48.034Z,29.70
2024-01-31T23:30:16.163Z,29.73
2024-01-31T23:32:43.842Z,28.95
2024-01-31T23:35:11.531Z,27.77
2024-01-31T23:37:40.637Z,24.67
2024-01-31T23:40:09.411Z,24.02
2024-01-31T23:42:37.073Z,26.65
2024-01-31T23:45:04.784Z,29.88
2024-01-31T23:47:33.571Z,28.95
2024-01-31T23:50:01.643Z,22.40
2024-01-31T23:52:29.290Z,21.02
2024-01-31T23:54:58.899Z,22.17
2024-01-31T23:57:26.521Z,20.60
2024-01-31T23:59:54.314Z,20.92
